createdAt,value
2023-05-01T00:03:44.389Z,10.44
2023-05-01T00:08:46.586Z,10.49
2023-05-01T00:13:48.306Z,10.44
2023-05-01T00:18:50.490Z,10.40
2023-05-01T00:23:52.205Z,10.43
2023-05-01T00:28:54.159Z,10.39
2023-05-01T00:33:56.341Z,10.38
2023-05-01T00:38:58.199Z,10.38
2023-05-01T00:44:00.586Z,10.28
2023-05-01T00:49:02.800Z,10.37
2023-05-01T00:54:06.033Z,10.50
2023-05-01T00:59:07.856Z,10.48
2023-05-01T01:04:09.720Z,10.35
2023-05-01T01:09:50.887Z,10.19
2023-05-01T01:15:01.981Z,10.09
2023-05-01T01:20:18.904Z,9.98
2023-05-01T01:25:43.535Z,9.90
2023-05-01T01:31:09.334Z,9.65
2023-05-01T01:36:18.868Z,9.63
2023-05-01T01:41:26.132Z,9.61
2023-05-01T01:46:33.889Z,9.62
2023-05-01T01:51:40.666Z,9.40
2023-05-01T01:56:46.004Z,9.27
2023-05-01T02:01:50.676Z,9.37
2023-05-01T02:06:57.171Z,9.44
2023-05-01T02:12:01.737Z,9.28
2023-05-01T02:17:04.783Z,9.23
2023-05-01T02:22:07.545Z,9.21
2023-05-01T02:27:32.718Z,9.16
2023-05-01T02:32:34.450Z,9.08
2023-05-01T02:37:37.955Z,8.90
2023-05-01T02:42:43.668Z,8.90
2023-05-01T02:47:50.468Z,8.90
2023-05-01T02:52:52.900Z,8.82
2023-05-01T02:58:07.647Z,8.76
2023-05-01T03:03:09.454Z,8.75
2023-05-01T03:08:13.423Z,8.76
2023-05-01T03:13:15.091Z,8.67
2023-05-01T03:18:16.722Z,8.63
2023-05-01T03:23:18.383Z,8.63
2023-05-01T03:28:21.729Z,8.66
2023-05-01T03:33:25.448Z,8.79
2023-05-01T03:38:27.920Z,8.53
2023-05-01T03:43:44.939Z,8.37
2023-05-01T03:49:04.016Z,8.46
2023-05-01T03:54:10.557Z,8.55
2023-05-01T03:59:29.691Z,8.71
2023-05-01T04:04:31.428Z,8.75
2023-05-01T04:09:33.832Z,8.63
2023-05-01T04:14:35.720Z,8.67
2023-05-01T04:19:38.954Z,8.83
2023-05-01T04:24:40.784Z,8.93
2023-05-01T04:29:43.482Z,8.85
2023-05-01T04:34:45.373Z,8.89
2023-05-01T04:39:47.209Z,9.00
2023-05-01T04:44:49.189Z,9.08
2023-05-01T04:49:51.579Z,9.20
2023-05-01T04:54:53.465Z,9.29
2023-05-01T04:59:58.354Z,9.40
2023-05-01T05:05:00.568Z,9.55
2023-05-01T05:10:02.357Z,9.58
2023-05-01T05:15:05.200Z,9.67
2023-05-01T05:20:07.908Z,9.86
2023-05-01T05:25:09.857Z,10.08
2023-05-01T05:30:11.850Z,9.99
2023-05-01T05:35:14.332Z,10.05
2023-05-01T05:40:16.433Z,10.16
2023-05-01T05:45:34.359Z,10.30
2023-05-01T05:50:36.499Z,10.47
2023-05-01T05:55:38.611Z,10.60
2023-05-01T06:00:42.018Z,10.72
2023-05-01T06:05:44.142Z,10.81
2023-05-01T06:10:46.273Z,10.92
2023-05-01T06:15:48.980Z,11.06
2023-05-01T06:20:52.175Z,11.16
2023-05-01T06:25:53.985Z,11.28
2023-05-01T06:30:55.986Z,11.39
2023-05-01T06:35:59.872Z,11.52
2023-05-01T06:41:01.637Z,11.66
2023-05-01T06:46:04.365Z,11.87
2023-05-01T06:51:06.123Z,12.07
2023-05-01T06:56:08.853Z,12.19
2023-05-01T07:01:10.847Z,12.28
2023-05-01T07:06:12.601Z,12.39
2023-05-01T07:11:14.891Z,12.56
2023-05-01T07:16:16.749Z,12.64
2023-05-01T07:21:18.878Z,12.79
2023-05-01T07:26:20.899Z,12.93
2023-05-01T07:31:22.833Z,13.01
2023-05-01T07:36:24.736Z,13.11
2023-05-01T07:41:26.708Z,13.18
2023-05-01T07:46:28.487Z,13.23
2023-05-01T07:51:30.853Z,13.36
2023-05-01T07:56:33.074Z,13.33
2023-05-01T08:01:36.436Z,13.41
2023-05-01T08:06:38.266Z,13.53
2023-05-01T08:11:40.243Z,13.52
2023-05-01T08:16:42.121Z,13.59
2023-05-01T08:21:43.795Z,13.55
2023-05-01T08:26:45.826Z,13.59
2023-05-01T08:31:47.606Z,13.69
2023-05-01T08:36:52.124Z,13.86
2023-05-01T08:41:54.210Z,13.89
2023-05-01T08:47:06.478Z,13.98
2023-05-01T08:52:11.533Z,14.08
2023-05-01T08:57:13.870Z,14.19
2023-05-01T09:02:16.034Z,14.20
2023-05-01T09:07:17.888Z,14.30
2023-05-01T09:12:27.230Z,14.40
2023-05-01T09:17:31.767Z,14.44
2023-05-01T09:22:34.566Z,14.43
2023-05-01T09:27:37.290Z,14.33
2023-05-01T09:32:41.397Z,14.20
2023-05-01T09:37:49.569Z,14.21
2023-05-01T09:42:52.963Z,14.16
2023-05-01T09:48:10.777Z,14.21
2023-05-01T09:53:13.812Z,14.19
2023-05-01T09:58:28.201Z,14.17
2023-05-01T10:03:30.604Z,13.83
2023-05-01T10:08:49.431Z,13.22
2023-05-01T10:14:09.697Z,12.65
2023-05-01T10:19:12.617Z,12.37
2023-05-01T10:24:16.770Z,12.30
2023-05-01T10:29:23.541Z,12.28
2023-05-01T10:34:28.249Z,12.15
2023-05-01T10:39:34.461Z,12.10
2023-05-01T10:44:36.652Z,12.03
2023-05-01T10:50:08.717Z,12.01
2023-05-01T10:55:33.659Z,11.87
2023-05-01T11:00:35.396Z,11.86
2023-05-01T11:06:05.378Z,11.79
2023-05-01T11:11:19.449Z,11.87
2023-05-01T11:16:42.344Z,11.95
2023-05-01T11:21:44.626Z,11.87
2023-05-01T11:26:47.327Z,11.89
2023-05-01T11:31:49.141Z,11.84
2023-05-01T11:36:52.265Z,11.83
2023-05-01T11:42:09.887Z,11.84
2023-05-01T11:47:12.149Z,11.85
2023-05-01T11:52:13.921Z,11.92
2023-05-01T11:57:16.051Z,11.97
2023-05-01T12:02:21.116Z,12.05
2023-05-01T12:07:23.758Z,12.15
2023-05-01T12:12:26.369Z,12.15
2023-05-01T12:17:30.431Z,12.22
2023-05-01T12:22:32.123Z,12.37
2023-05-01T12:27:43.150Z,12.48
2023-05-01T12:32:45.058Z,12.45
2023-05-01T12:37:46.950Z,12.50
2023-05-01T12:42:58.414Z,12.52
2023-05-01T12:48:00.266Z,12.54
2023-05-01T12:53:03.043Z,12.68
2023-05-01T12:58:05.241Z,12.82
2023-05-01T13:03:07.088Z,12.88
2023-05-01T13:08:08.970Z,12.98
2023-05-01T13:13:10.684Z,12.97
2023-05-01T13:18:13.351Z,13.00
2023-05-01T13:23:15.539Z,13.09
2023-05-01T13:28:20.822Z,13.19
2023-05-01T13:33:22.524Z,13.20
2023-05-01T13:38:25.091Z,13.11
2023-05-01T13:43:27.531Z,13.15
2023-05-01T13:48:30.979Z,13.13
2023-05-01T13:53:33.320Z,13.16
2023-05-01T13:58:36.336Z,13.22
2023-05-01T14:03:40.109Z,13.32
2023-05-01T14:08:43.247Z,13.28
2023-05-01T14:13:46.532Z,13.42
2023-05-01T14:18:48.710Z,13.39
2023-05-01T14:23:52.983Z,13.39
2023-05-01T14:28:55.525Z,13.26
2023-05-01T14:34:01.698Z,13.29
2023-05-01T14:39:05.414Z,13.41
2023-05-01T14:44:12.625Z,13.41
2023-05-01T14:49:24.995Z,13.54
2023-05-01T14:54:26.745Z,13.56
2023-05-01T14:59:28.349Z,13.65
2023-05-01T15:04:30.103Z,13.69
2023-05-01T15:09:31.966Z,13.80
2023-05-01T15:14:33.651Z,13.93
2023-05-01T15:19:35.418Z,14.03
2023-05-01T15:24:37.315Z,14.06
2023-05-01T15:29:39.138Z,14.19
2023-05-01T15:34:42.613Z,14.25
2023-05-01T15:39:44.429Z,14.30
2023-05-01T15:44:47.631Z,14.33
2023-05-01T15:49:49.875Z,14.31
2023-05-01T15:54:51.982Z,14.33
2023-05-01T15:59:55.838Z,14.38
2023-05-01T16:04:57.838Z,14.40
2023-05-01T16:10:00.118Z,14.36
2023-05-01T16:15:03.776Z,14.26
2023-05-01T16:20:14.012Z,14.27
2023-05-01T16:25:16.576Z,14.31
2023-05-01T16:30:18.482Z,14.35
2023-05-01T16:35:27.530Z,14.34
2023-05-01T16:40:29.265Z,14.29
2023-05-01T16:45:32.169Z,14.27
2023-05-01T16:50:34.140Z,14.32
2023-05-01T16:55:36.162Z,14.33
2023-05-01T17:00:37.824Z,14.35
2023-05-01T17:05:39.511Z,14.33
2023-05-01T17:10:41.150Z,14.24
2023-05-01T17:15:43.046Z,14.20
2023-05-01T17:20:44.867Z,14.14
2023-05-01T17:25:46.555Z,14.11
2023-05-01T17:30:48.334Z,14.09
2023-05-01T17:35:50.736Z,14.04
2023-05-01T17:40:52.749Z,13.94
2023-05-01T17:45:54.501Z,13.80
2023-05-01T17:50:56.619Z,13.86
2023-05-01T17:55:58.307Z,13.81
2023-05-01T18:01:00.700Z,13.76
2023-05-01T18:06:02.742Z,13.62
2023-05-01T18:11:04.559Z,13.59
2023-05-01T18:16:06.370Z,13.49
2023-05-01T18:21:08.165Z,13.48
2023-05-01T18:26:09.951Z,13.51
2023-05-01T18:31:11.677Z,13.51
2023-05-01T18:36:13.454Z,13.53
2023-05-01T18:41:15.141Z,13.52
2023-05-01T18:46:17.153Z,13.49
2023-05-01T18:51:18.930Z,13.46
2023-05-01T18:56:20.996Z,13.46
2023-05-01T19:01:23.382Z,13.46
2023-05-01T19:06:26.311Z,13.45
2023-05-01T19:11:31.569Z,13.46
2023-05-01T19:16:33.499Z,13.44
2023-05-01T19:21:35.819Z,13.44
2023-05-01T19:26:37.602Z,13.41
2023-05-01T19:31:39.364Z,13.42
2023-05-01T19:36:41.142Z,13.42
2023-05-01T19:41:42.821Z,13.42
2023-05-01T19:46:45.080Z,13.43
2023-05-01T19:51:46.988Z,13.42
2023-05-01T19:56:51.510Z,13.41
2023-05-01T20:01:53.643Z,13.38
2023-05-01T20:06:55.664Z,13.38
2023-05-01T20:11:57.312Z,13.38
2023-05-01T20:16:59.053Z,13.37
2023-05-01T20:22:01.079Z,13.36
2023-05-01T20:27:04.435Z,13.31
2023-05-01T20:32:06.356Z,13.22
2023-05-01T20:37:08.053Z,13.16
2023-05-01T20:42:10.078Z,13.09
2023-05-01T20:47:13.900Z,13.05
2023-05-01T20:52:15.539Z,13.02
2023-05-01T20:57:17.283Z,12.98
2023-05-01T21:02:19.115Z,12.97
2023-05-01T21:07:21.304Z,12.94
2023-05-01T21:12:23.060Z,12.85
2023-05-01T21:17:24.780Z,12.78
2023-05-01T21:22:26.710Z,12.70
2023-05-01T21:27:28.340Z,12.68
2023-05-01T21:32:32.926Z,12.59
2023-05-01T21:37:34.740Z,12.60
2023-05-01T21:42:39.129Z,12.63
2023-05-01T21:47:47.304Z,12.61
2023-05-01T21:52:49.841Z,12.60
2023-05-01T21:57:51.862Z,12.57
2023-05-01T22:02:53.939Z,12.58
2023-05-01T22:07:55.712Z,12.58
2023-05-01T22:12:57.348Z,12.57
2023-05-01T22:17:59.247Z,12.57
2023-05-01T22:23:01.469Z,12.45
2023-05-01T22:28:05.527Z,12.44
2023-05-01T22:33:07.434Z,12.46
2023-05-01T22:38:09.524Z,12.41
2023-05-01T22:43:11.265Z,12.34
2023-05-01T22:48:12.944Z,12.27
2023-05-01T22:53:14.787Z,12.26
2023-05-01T22:58:16.481Z,12.28
2023-05-01T23:03:18.448Z,12.25
2023-05-01T23:08:20.184Z,12.22
2023-05-01T23:13:23.592Z,12.20
2023-05-01T23:18:31.757Z,12.17
2023-05-01T23:23:35.661Z,12.14
2023-05-01T23:28:42.286Z,12.12
2023-05-01T23:33:44.060Z,12.09
2023-05-01T23:38:47.142Z,12.08
2023-05-01T23:43:48.887Z,12.03
2023-05-01T23:48:50.672Z,12.00
2023-05-01T23:53:52.485Z,11.93
2023-05-01T23:58:54.456Z,11.88
